sensor_id;sensor_type;location;lat;lon;timestamp;pressure;altitude;pressure_sealevel;temperature;humidity
17525;BME280;40431;52.198;9.902;2023-07-29T00:00:06;99904.53;;;20.85;100.00
17525;BME280;40431;52.198;9.902;2023-07-29T00:02:32;99893.53;;;20.85;100.00
17525;BME280;40431;52.198;9.902;2023-07-29T00:04:59;99905.25;;;20.88;100.00
17525;BME280;40431;52.198;9.902;2023-07-29T00:07:25;99901.78;;;20.85;100.00
17525;BME280;40431;52.198;9.902;2023-07-29T00:09:51;99905.75;;;20.83;100.00
17525;BME280;40431;52.198;9.902;2023-07-29T00:12:19;99911.81;;;20.78;100.00
17525;BME280;40431;52.198;9.902;2023-07-29T00:14:45;99915.59;;;20.77;100.00
17525;BME280;40431;52.198;9.902;2023-07-29T00:17:12;99908.72;;;20.73;100.00
17525;BME280;40431;52.198;9.902;2023-07-29T00:19:38;99917.16;;;20.72;100.00
17525;BME280;40431;52.198;9.902;2023-07-29T00:22:05;99913.00;;;20.67;100.00
17525;BME280;40431;52.198;9.902;2023-07-29T00:24:33;99911.28;;;20.66;100.00
17525;BME280;40431;52.198;9.902;2023-07-29T00:27:00;99907.66;;;20.66;100.00
17525;BME280;40431;52.198;9.902;2023-07-29T00:29:27;99918.84;;;20.64;100.00
17525;BME280;40431;52.198;9.902;2023-07-29T00:31:54;99914.22;;;20.57;100.00
17525;BME280;40431;52.198;9.902;2023-07-29T00:34:20;99907.00;;;20.56;100.00
17525;BME280;40431;52.198;9.902;2023-07-29T00:36:46;99912.84;;;20.52;100.00
17525;BME280;40431;52.198;9.902;2023-07-29T00:39:13;99914.22;;;20.48;100.00
17525;BME280;40431;52.198;9.902;2023-07-29T00:41:40;99915.09;;;20.41;100.00
17525;BME280;40431;52.198;9.902;2023-07-29T00:44:06;99913.72;;;20.36;100.00
17525;BME280;40431;52.198;9.902;2023-07-29T00:46:35;99910.97;;;20.36;100.00
17525;BME280;40431;52.198;9.902;2023-07-29T00:49:03;99909.41;;;20.34;100.00
17525;BME280;40431;52.198;9.902;2023-07-29T00:51:29;99908.56;;;20.33;100.00
17525;BME280;40431;52.198;9.902;2023-07-29T00:53:56;99903.75;;;20.27;100.00
17525;BME280;40431;52.198;9.902;2023-07-29T00:56:22;99907.72;;;20.16;100.00
17525;BME280;40431;52.198;9.902;2023-07-29T00:58:49;99896.88;;;20.07;100.00
17525;BME280;40431;52.198;9.902;2023-07-29T01:01:17;99894.28;;;19.97;100.00
17525;BME280;40431;52.198;9.902;2023-07-29T01:03:44;99898.59;;;19.91;100.00
17525;BME280;40431;52.198;9.902;2023-07-29T01:06:13;99900.47;;;19.82;100.00
17525;BME280;40431;52.198;9.902;2023-07-29T01:08:51;99893.25;;;19.81;100.00
17525;BME280;40431;52.198;9.902;2023-07-29T01:11:33;99894.59;;;19.77;100.00
17525;BME280;40431;52.198;9.902;2023-07-29T01:14:05;99900.78;;;19.79;100.00
17525;BME280;40431;52.198;9.902;2023-07-29T01:16:39;99890.66;;;19.80;100.00
17525;BME280;40431;52.198;9.902;2023-07-29T01:19:17;99893.53;;;19.78;100.00
17525;BME280;40431;52.198;9.902;2023-07-29T01:21:53;99893.03;;;19.75;100.00
17525;BME280;40431;52.198;9.902;2023-07-29T01:24:22;99900.94;;;19.69;100.00
17525;BME280;40431;52.198;9.902;2023-07-29T01:26:48;99892.69;;;19.61;100.00
17525;BME280;40431;52.198;9.902;2023-07-29T01:29:15;99890.41;;;19.57;100.00
17525;BME280;40431;52.198;9.902;2023-07-29T01:31:43;99884.56;;;19.51;100.00
17525;BME280;40431;52.198;9.902;2023-07-29T01:34:15;99888.50;;;19.49;100.00
17525;BME280;40431;52.198;9.902;2023-07-29T01:36:44;99874.94;;;19.47;100.00
17525;BME280;40431;52.198;9.902;2023-07-29T01:39:14;99871.16;;;19.40;100.00
17525;BME280;40431;52.198;9.902;2023-07-29T01:41:43;99879.41;;;19.40;100.00
17525;BME280;40431;52.198;9.902;2023-07-29T01:44:10;99887.13;;;19.45;100.00
17525;BME280;40431;52.198;9.902;2023-07-29T01:46:37;99887.13;;;19.45;100.00
17525;BME280;40431;52.198;9.902;2023-07-29T01:49:04;99878.19;;;19.43;100.00
17525;BME280;40431;52.198;9.902;2023-07-29T01:51:30;99882.31;;;19.39;100.00
17525;BME280;40431;52.198;9.902;2023-07-29T01:53:56;99880.59;;;19.38;100.00
17525;BME280;40431;52.198;9.902;2023-07-29T01:56:24;99870.44;;;19.38;100.00
17525;BME280;40431;52.198;9.902;2023-07-29T01:58:51;99870.13;;;19.41;100.00
17525;BME280;40431;52.198;9.902;2023-07-29T02:01:18;99880.41;;;19.39;100.00
17525;BME280;40431;52.198;9.902;2023-07-29T02:03:44;99873.03;;;19.40;100.00
17525;BME280;40431;52.198;9.902;2023-07-29T02:06:10;99875.63;;;19.41;100.00
17525;BME280;40431;52.198;9.902;2023-07-29T02:08:37;99873.91;;;19.40;100.00
17525;BME280;40431;52.198;9.902;2023-07-29T02:11:06;99867.38;;;19.41;100.00
17525;BME280;40431;52.198;9.902;2023-07-29T02:13:32;99864.63;;;19.41;100.00
17525;BME280;40431;52.198;9.902;2023-07-29T02:16:00;99853.63;;;19.41;100.00
17525;BME280;40431;52.198;9.902;2023-07-29T02:18:26;99844.34;;;19.42;100.00
17525;BME280;40431;52.198;9.902;2023-07-29T02:20:52;99850.72;;;19.43;100.00
17525;BME280;40431;52.198;9.902;2023-07-29T02:23:19;99857.41;;;19.40;100.00
17525;BME280;40431;52.198;9.902;2023-07-29T02:25:45;99851.72;;;19.42;100.00
17525;BME280;40431;52.198;9.902;2023-07-29T02:28:12;99851.03;;;19.40;100.00
17525;BME280;40431;52.198;9.902;2023-07-29T02:30:41;99851.19;;;19.38;100.00
17525;BME280;40431;52.198;9.902;2023-07-29T02:33:10;99842.94;;;19.38;100.00
17525;BME280;40431;52.198;9.902;2023-07-29T02:35:36;99839.53;;;19.36;100.00
17525;BME280;40431;52.198;9.902;2023-07-29T02:38:03;99841.09;;;19.39;100.00
17525;BME280;40431;52.198;9.902;2023-07-29T02:40:29;99837.13;;;19.41;100.00
17525;BME280;40431;52.198;9.902;2023-07-29T02:42:56;99845.88;;;19.45;100.00
17525;BME280;40431;52.198;9.902;2023-07-29T02:45:23;99846.06;;;19.51;100.00
17525;BME280;40431;52.198;9.902;2023-07-29T02:47:49;99852.28;;;19.53;100.00
17525;BME280;40431;52.198;9.902;2023-07-29T02:50:17;99857.78;;;19.53;100.00
17525;BME280;40431;52.198;9.902;2023-07-29T02:52:43;99854.00;;;19.55;100.00
17525;BME280;40431;52.198;9.902;2023-07-29T02:55:09;99856.03;;;19.52;100.00
17525;BME280;40431;52.198;9.902;2023-07-29T02:57:36;99852.28;;;19.53;100.00
17525;BME280;40431;52.198;9.902;2023-07-29T03:00:02;99852.63;;;19.50;100.00
17525;BME280;40431;52.198;9.902;2023-07-29T03:02:29;99851.91;;;19.48;100.00
17525;BME280;40431;52.198;9.902;2023-07-29T03:04:55;99851.56;;;19.51;100.00
17525;BME280;40431;52.198;9.902;2023-07-29T03:07:23;99857.59;;;19.55;100.00
17525;BME280;40431;52.198;9.902;2023-07-29T03:09:49;99849.69;;;19.52;100.00
17525;BME280;40431;52.198;9.902;2023-07-29T03:12:16;99855.69;;;19.56;100.00
17525;BME280;40431;52.198;9.902;2023-07-29T03:14:42;99849.34;;;19.55;100.00
17525;BME280;40431;52.198;9.902;2023-07-29T03:17:08;99849.69;;;19.52;100.00
17525;BME280;40431;52.198;9.902;2023-07-29T03:19:35;99844.69;;;19.56;100.00
17525;BME280;40431;52.198;9.902;2023-07-29T03:22:01;99840.94;;;19.57;100.00
17525;BME280;40431;52.198;9.902;2023-07-29T03:24:29;99837.16;;;19.58;100.00
17525;BME280;40431;52.198;9.902;2023-07-29T03:26:55;99836.13;;;19.59;100.00
17525;BME280;40431;52.198;9.902;2023-07-29T03:29:22;99822.88;;;19.62;100.00
17525;BME280;40431;52.198;9.902;2023-07-29T03:31:48;99823.75;;;19.63;100.00
17525;BME280;40431;52.198;9.902;2023-07-29T03:34:14;99837.16;;;19.66;100.00
17525;BME280;40431;52.198;9.902;2023-07-29T03:36:41;99830.28;;;19.70;100.00
17525;BME280;40431;52.198;9.902;2023-07-29T03:39:07;99833.03;;;19.70;100.00
17525;BME280;40431;52.198;9.902;2023-07-29T03:41:35;99838.22;;;19.73;100.00
17525;BME280;40431;52.198;9.902;2023-07-29T03:44:01;99836.84;;;19.77;100.00
17525;BME280;40431;52.198;9.902;2023-07-29T03:46:28;99845.75;;;19.79;100.00
17525;BME280;40431;52.198;9.902;2023-07-29T03:48:54;99847.16;;;19.83;100.00
17525;BME280;40431;52.198;9.902;2023-07-29T03:51:20;99836.88;;;19.85;100.00
17525;BME280;40431;52.198;9.902;2023-07-29T03:53:48;99830.50;;;19.85;100.00
17525;BME280;40431;52.198;9.902;2023-07-29T03:56:14;99835.13;;;19.84;100.00
17525;BME280;40431;52.198;9.902;2023-07-29T03:58:42;99822.25;;;19.85;100.00
17525;BME280;40431;52.198;9.902;2023-07-29T04:01:08;99819.66;;;19.83;100.00
17525;BME280;40431;52.198;9.902;2023-07-29T04:03:35;99819.97;;;19.80;100.00
17525;BME280;40431;52.198;9.902;2023-07-29T04:06:01;99822.91;;;19.79;100.00
17525;BME280;40431;52.198;9.902;2023-07-29T04:08:28;99818.97;;;19.73;100.00
17525;BME280;40431;52.198;9.902;2023-07-29T04:10:54;99820.16;;;19.71;100.00
17525;BME280;40431;52.198;9.902;2023-07-29T04:13:20;99814.81;;;19.69;100.00
17525;BME280;40431;52.198;9.902;2023-07-29T04:15:48;99813.78;;;19.70;100.00
17525;BME280;40431;52.198;9.902;2023-07-29T04:18:15;99814.81;;;19.69;100.00
17525;BME280;40431;52.198;9.902;2023-07-29T04:20:41;99805.88;;;19.67;100.00
17525;BME280;40431;52.198;9.902;2023-07-29T04:23:07;99803.47;;;19.64;100.00
17525;BME280;40431;52.198;9.902;2023-07-29T04:25:34;99814.13;;;19.67;100.00
17525;BME280;40431;52.198;9.902;2023-07-29T04:28:00;99805.69;;;19.68;100.00
17525;BME280;40431;52.198;9.902;2023-07-29T04:30:28;99803.47;;;19.64;100.00
17525;BME280;40431;52.198;9.902;2023-07-29T04:32:56;99809.84;;;19.64;100.00
17525;BME280;40431;52.198;9.902;2023-07-29T04:35:22;99811.03;;;19.62;100.00
17525;BME280;40431;52.198;9.902;2023-07-29T04:37:48;99808.47;;;19.60;100.00
17525;BME280;40431;52.198;9.902;2023-07-29T04:40:15;99798.31;;;19.61;100.00
17525;BME280;40431;52.198;9.902;2023-07-29T04:42:41;99796.25;;;19.63;100.00
17525;BME280;40431;52.198;9.902;2023-07-29T04:45:08;99803.47;;;19.64;100.00
17525;BME280;40431;52.198;9.902;2023-07-29T04:47:34;99790.41;;;19.66;100.00
17525;BME280;40431;52.198;9.902;2023-07-29T04:50:02;99799.34;;;19.68;100.00
17525;BME280;40431;52.198;9.902;2023-07-29T04:52:29;99799.00;;;19.71;100.00
17525;BME280;40431;52.198;9.902;2023-07-29T04:54:55;99805.22;;;19.73;100.00
17525;BME280;40431;52.198;9.902;2023-07-29T04:57:21;99802.09;;;19.76;100.00
17525;BME280;40431;52.198;9.902;2023-07-29T04:59:48;99793.84;;;19.76;100.00
17525;BME280;40431;52.198;9.902;2023-07-29T05:02:14;99791.78;;;19.78;100.00
17525;BME280;40431;52.198;9.902;2023-07-29T05:04:41;99794.38;;;19.80;100.00
17525;BME280;40431;52.198;9.902;2023-07-29T05:07:09;99793.50;;;19.79;100.00
17525;BME280;40431;52.198;9.902;2023-07-29T05:09:35;99783.91;;;19.83;100.00
17525;BME280;40431;52.198;9.902;2023-07-29T05:12:02;99793.50;;;19.88;100.00
17525;BME280;40431;52.198;9.902;2023-07-29T05:14:28;99786.66;;;19.83;100.00
17525;BME280;40431;52.198;9.902;2023-07-29T05:16:55;99788.38;;;19.84;100.00
17525;BME280;40431;52.198;9.902;2023-07-29T05:19:21;99791.13;;;19.84;100.00
17525;BME280;40431;52.198;9.902;2023-07-29T05:21:47;99788.91;;;19.88;100.00
17525;BME280;40431;52.198;9.902;2023-07-29T05:24:15;99787.00;;;19.89;100.00
17525;BME280;40431;52.198;9.902;2023-07-29T05:26:41;99793.50;;;19.88;100.00
17525;BME280;40431;52.198;9.902;2023-07-29T05:29:08;99785.97;;;19.90;100.00
17525;BME280;40431;52.198;9.902;2023-07-29T05:31:34;99786.13;;;19.88;100.00
17525;BME280;40431;52.198;9.902;2023-07-29T05:34:00;99789.41;;;19.92;100.00
17525;BME280;40431;52.198;9.902;2023-07-29T05:36:27;99783.91;;;19.92;100.00
17525;BME280;40431;52.198;9.902;2023-07-29T05:38:54;99785.28;;;19.96;100.00
17525;BME280;40431;52.198;9.902;2023-07-29T05:41:22;99784.22;;;19.97;100.00
17525;BME280;40431;52.198;9.902;2023-07-29T05:43:48;99799.03;;;19.96;100.00
17525;BME280;40431;52.198;9.902;2023-07-29T05:46:15;99808.13;;;19.96;100.00
17525;BME280;40431;52.198;9.902;2023-07-29T05:48:41;99797.66;;;19.92;100.00
17525;BME280;40431;52.198;9.902;2023-07-29T05:51:07;99795.75;;;19.92;100.00
17525;BME280;40431;52.198;9.902;2023-07-29T05:53:34;99798.34;;;19.94;100.00
17525;BME280;40431;52.198;9.902;2023-07-29T05:56:00;99799.03;;;19.96;100.00
17525;BME280;40431;52.198;9.902;2023-07-29T05:58:28;99793.69;;;19.94;100.00
17525;BME280;40431;52.198;9.902;2023-07-29T06:00:56;99788.03;;;19.96;100.00
17525;BME280;40431;52.198;9.902;2023-07-29T06:03:22;99775.97;;;19.97;100.00
17525;BME280;40431;52.198;9.902;2023-07-29T06:05:49;99772.00;;;19.99;100.00
17525;BME280;40431;52.198;9.902;2023-07-29T06:08:15;99769.25;;;19.99;100.00
17525;BME280;40431;52.198;9.902;2023-07-29T06:10:42;99764.63;;;20.00;100.00
17525;BME280;40431;52.198;9.902;2023-07-29T06:13:08;99764.47;;;20.01;100.00
17525;BME280;40431;52.198;9.902;2023-07-29T06:15:36;99763.44;;;20.02;100.00
17525;BME280;40431;52.198;9.902;2023-07-29T06:18:02;99763.28;;;19.96;100.00
17525;BME280;40431;52.198;9.902;2023-07-29T06:20:29;99777.34;;;19.93;100.00
17525;BME280;40431;52.198;9.902;2023-07-29T06:22:55;99774.78;;;19.91;100.00
17525;BME280;40431;52.198;9.902;2023-07-29T06:25:22;99768.75;;;19.88;100.00
17525;BME280;40431;52.198;9.902;2023-07-29T06:27:48;99762.22;;;19.89;100.00
17525;BME280;40431;52.198;9.902;2023-07-29T06:30:14;99774.59;;;19.93;100.00
17525;BME280;40431;52.198;9.902;2023-07-29T06:32:42;99790.78;;;19.96;100.00
17525;BME280;40431;52.198;9.902;2023-07-29T06:35:09;99792.84;;;19.94;100.00
17525;BME280;40431;52.198;9.902;2023-07-29T06:37:35;99792.47;;;19.97;100.00
17525;BME280;40431;52.198;9.902;2023-07-29T06:40:01;99798.16;;;19.95;100.00
17525;BME280;40431;52.198;9.902;2023-07-29T06:42:28;99798.69;;;19.91;100.00
17525;BME280;40431;52.198;9.902;2023-07-29T06:44:55;99794.56;;;19.95;100.00
17525;BME280;40431;52.198;9.902;2023-07-29T06:47:21;99792.63;;;20.03;100.00
17525;BME280;40431;52.198;9.902;2023-07-29T06:49:49;99795.41;;;20.12;100.00
17525;BME280;40431;52.198;9.902;2023-07-29T06:52:15;99789.34;;;20.25;100.00
17525;BME280;40431;52.198;9.902;2023-07-29T06:54:41;99804.81;;;20.34;100.00
17525;BME280;40431;52.198;9.902;2023-07-29T06:57:08;99796.69;;;20.41;100.00
17525;BME280;40431;52.198;9.902;2023-07-29T06:59:34;99795.84;;;20.40;100.00
17525;BME280;40431;52.198;9.902;2023-07-29T07:02:01;99801.34;;;20.40;100.00
17525;BME280;40431;52.198;9.902;2023-07-29T07:04:27;99796.88;;;20.39;100.00
17525;BME280;40431;52.198;9.902;2023-07-29T07:06:55;99798.59;;;20.40;100.00
17525;BME280;40431;52.198;9.902;2023-07-29T07:09:21;99795.31;;;20.45;100.00
17525;BME280;40431;52.198;9.902;2023-07-29T07:11:47;99802.69;;;20.52;100.00
17525;BME280;40431;52.198;9.902;2023-07-29T07:14:14;99796.84;;;20.56;100.00
17525;BME280;40431;52.198;9.902;2023-07-29T07:16:40;99794.94;;;20.56;100.00
17525;BME280;40431;52.198;9.902;2023-07-29T07:19:07;99795.63;;;20.58;100.00
17525;BME280;40431;52.198;9.902;2023-07-29T07:21:33;99798.88;;;20.62;100.00
17525;BME280;40431;52.198;9.902;2023-07-29T07:24:01;99797.19;;;20.61;100.00
17525;BME280;40431;52.198;9.902;2023-07-29T07:26:27;99790.97;;;20.59;100.00
17525;BME280;40431;52.198;9.902;2023-07-29T07:28:54;99790.78;;;20.60;100.00
17525;BME280;40431;52.198;9.902;2023-07-29T07:31:20;99788.19;;;20.67;100.00
17525;BME280;40431;52.198;9.902;2023-07-29T07:33:46;99784.06;;;20.71;100.00
17525;BME280;40431;52.198;9.902;2023-07-29T07:36:13;99796.13;;;20.70;100.00
17525;BME280;40431;52.198;9.902;2023-07-29T07:38:40;99786.47;;;20.66;100.00
17525;BME280;40431;52.198;9.902;2023-07-29T07:41:08;99789.91;;;20.68;100.00
17525;BME280;40431;52.198;9.902;2023-07-29T07:43:35;99792.66;;;20.68;100.00
17525;BME280;40431;52.198;9.902;2023-07-29T07:46:01;99785.78;;;20.72;100.00
17525;BME280;40431;52.198;9.902;2023-07-29T07:48:28;99799.53;;;20.80;100.00
17525;BME280;40431;52.198;9.902;2023-07-29T07:50:54;99791.41;;;20.87;100.00
17525;BME280;40431;52.198;9.902;2023-07-29T07:53:21;99785.19;;;20.93;100.00
17525;BME280;40431;52.198;9.902;2023-07-29T07:55:47;99778.78;;;21.01;100.00
17525;BME280;40431;52.198;9.902;2023-07-29T07:58:16;99764.09;;;21.09;100.00
17525;BME280;40431;52.198;9.902;2023-07-29T08:00:42;99773.53;;;21.14;100.00
17525;BME280;40431;52.198;9.902;2023-07-29T08:03:09;99775.84;;;21.26;100.00
17525;BME280;40431;52.198;9.902;2023-07-29T08:05:35;99766.16;;;21.30;100.00
17525;BME280;40431;52.198;9.902;2023-07-29T08:08:02;99777.81;;;21.40;100.00
17525;BME280;40431;52.198;9.902;2023-07-29T08:10:28;99768.13;;;21.44;100.00
17525;BME280;40431;52.198;9.902;2023-07-29T08:12:55;99761.53;;;21.54;100.00
17525;BME280;40431;52.198;9.902;2023-07-29T08:15:22;99768.06;;;21.61;100.00
17525;BME280;40431;52.198;9.902;2023-07-29T08:17:49;99770.03;;;21.67;100.00
17525;BME280;40431;52.198;9.902;2023-07-29T08:20:15;99763.78;;;21.73;100.00
17525;BME280;40431;52.198;9.902;2023-07-29T08:22:42;99763.88;;;21.65;100.00
17525;BME280;40431;52.198;9.902;2023-07-29T08:25:08;99764.22;;;21.62;100.00
17525;BME280;40431;52.198;9.902;2023-07-29T08:27:34;99771.84;;;21.60;100.00
17525;BME280;40431;52.198;9.902;2023-07-29T08:30:01;99768.25;;;21.51;100.00
17525;BME280;40431;52.198;9.902;2023-07-29T08:32:29;99759.31;;;21.49;100.00
17525;BME280;40431;52.198;9.902;2023-07-29T08:34:55;99767.59;;;21.49;100.00
17525;BME280;40431;52.198;9.902;2023-07-29T08:37:21;99761.38;;;21.47;100.00
17525;BME280;40431;52.198;9.902;2023-07-29T08:39:48;99779.53;;;21.41;100.00
17525;BME280;40431;52.198;9.902;2023-07-29T08:42:17;99780.88;;;21.45;100.00
17525;BME280;40431;52.198;9.902;2023-07-29T08:44:45;99784.81;;;21.51;100.00
17525;BME280;40431;52.198;9.902;2023-07-29T08:47:13;99792.28;;;21.42;100.00
17525;BME280;40431;52.198;9.902;2023-07-29T08:49:42;99773.53;;;21.38;100.00
17525;BME280;40431;52.198;9.902;2023-07-29T08:52:09;99770.94;;;21.36;100.00
17525;BME280;40431;52.198;9.902;2023-07-29T08:54:35;99771.69;;;21.30;100.00
17525;BME280;40431;52.198;9.902;2023-07-29T08:57:03;99775.50;;;21.29;100.00
17525;BME280;40431;52.198;9.902;2023-07-29T08:59:30;99784.44;;;21.31;100.00
17525;BME280;40431;52.198;9.902;2023-07-29T09:01:58;99779.59;;;21.33;100.00
17525;BME280;40431;52.198;9.902;2023-07-29T09:04:24;99780.31;;;21.27;100.00
17525;BME280;40431;52.198;9.902;2023-07-29T09:06:53;99789.94;;;21.31;100.00
17525;BME280;40431;52.198;9.902;2023-07-29T09:09:21;99780.63;;;21.32;100.00
17525;BME280;40431;52.198;9.902;2023-07-29T09:11:47;99782.88;;;21.28;100.00
17525;BME280;40431;52.198;9.902;2023-07-29T09:14:14;99774.28;;;21.31;100.00
17525;BME280;40431;52.198;9.902;2023-07-29T09:16:41;99775.13;;;21.32;100.00
17525;BME280;40431;52.198;9.902;2023-07-29T09:19:07;99772.88;;;21.35;100.00
17525;BME280;40431;52.198;9.902;2023-07-29T09:21:34;99773.19;;;21.41;100.00
17525;BME280;40431;52.198;9.902;2023-07-29T09:24:05;99774.03;;;21.41;100.00
17525;BME280;40431;52.198;9.902;2023-07-29T09:26:32;99760.53;;;21.46;100.00
17525;BME280;40431;52.198;9.902;2023-07-29T09:29:00;99770.13;;;21.59;100.00
17525;BME280;40431;52.198;9.902;2023-07-29T09:31:27;99775.03;;;21.72;100.00
17525;BME280;40431;52.198;9.902;2023-07-29T09:33:56;99768.59;;;21.79;100.00
17525;BME280;40431;52.198;9.902;2023-07-29T09:36:23;99759.00;;;21.90;100.00
17525;BME280;40431;52.198;9.902;2023-07-29T09:38:52;99769.47;;;21.95;100.00
17525;BME280;40431;52.198;9.902;2023-07-29T09:41:22;99756.84;;;22.00;100.00
17525;BME280;40431;52.198;9.902;2023-07-29T09:43:55;99762.38;;;22.15;100.00
17525;BME280;40431;52.198;9.902;2023-07-29T09:46:23;99755.25;;;22.36;100.00
17525;BME280;40431;52.198;9.902;2023-07-29T09:48:53;99757.44;;;22.56;100.00
17525;BME280;40431;52.198;9.902;2023-07-29T09:51:19;99750.66;;;22.73;100.00
17525;BME280;40431;52.198;9.902;2023-07-29T09:53:47;99749.63;;;22.74;100.00
17525;BME280;40431;52.198;9.902;2023-07-29T09:56:14;99749.91;;;22.79;100.00
17525;BME280;40431;52.198;9.902;2023-07-29T09:58:43;99751.34;;;22.75;100.00
17525;BME280;40431;52.198;9.902;2023-07-29T10:01:11;99754.78;;;22.62;100.00
17525;BME280;40431;52.198;9.902;2023-07-29T10:03:37;99748.00;;;22.65;100.00
17525;BME280;40431;52.198;9.902;2023-07-29T10:06:05;99750.97;;;22.63;100.00
17525;BME280;40431;52.198;9.902;2023-07-29T10:08:32;99747.63;;;22.68;100.00
17525;BME280;40431;52.198;9.902;2023-07-29T10:11:01;99751.91;;;22.85;100.00
17525;BME280;40431;52.198;9.902;2023-07-29T10:13:28;99745.94;;;23.04;100.00
17525;BME280;40431;52.198;9.902;2023-07-29T10:15:56;99746.50;;;23.14;100.00
17525;BME280;40431;52.198;9.902;2023-07-29T10:18:23;99741.34;;;23.11;100.00
17525;BME280;40431;52.198;9.902;2023-07-29T10:20:51;99742.38;;;23.25;100.00
17525;BME280;40431;52.198;9.902;2023-07-29T10:23:17;99740.13;;;23.35;100.00
17525;BME280;40431;52.198;9.902;2023-07-29T10:25:50;99737.50;;;23.48;100.00
17525;BME280;40431;52.198;9.902;2023-07-29T10:28:20;99738.47;;;23.62;100.00
17525;BME280;40431;52.198;9.902;2023-07-29T10:30:49;99740.34;;;23.83;100.00
17525;BME280;40431;52.198;9.902;2023-07-29T10:33:17;99735.63;;;23.99;93.75
17525;BME280;40431;52.198;9.902;2023-07-29T10:35:44;99738.63;;;24.04;90.10
17525;BME280;40431;52.198;9.902;2023-07-29T10:38:11;99726.72;;;24.10;91.88
17525;BME280;40431;52.198;9.902;2023-07-29T10:40:46;99735.13;;;24.24;86.01
17525;BME280;40431;52.198;9.902;2023-07-29T10:43:19;99739.06;;;24.36;86.34
17525;BME280;40431;52.198;9.902;2023-07-29T10:45:45;99734.03;;;24.53;85.57
17525;BME280;40431;52.198;9.902;2023-07-29T10:48:13;99727.75;;;24.73;86.89
17525;BME280;40431;52.198;9.902;2023-07-29T10:50:41;99727.78;;;24.79;82.17
17525;BME280;40431;52.198;9.902;2023-07-29T10:53:07;99724.84;;;24.88;82.35
17525;BME280;40431;52.198;9.902;2023-07-29T10:55:35;99718.88;;;24.91;77.20
17525;BME280;40431;52.198;9.902;2023-07-29T10:58:20;99708.81;;;24.83;77.73
17525;BME280;40431;52.198;9.902;2023-07-29T11:00:46;99707.34;;;24.94;78.62
17525;BME280;40431;52.198;9.902;2023-07-29T11:03:13;99711.41;;;24.98;75.78
17525;BME280;40431;52.198;9.902;2023-07-29T11:05:47;99713.75;;;24.88;75.37
17525;BME280;40431;52.198;9.902;2023-07-29T11:08:31;99718.06;;;24.62;75.25
17525;BME280;40431;52.198;9.902;2023-07-29T11:11:06;99714.41;;;24.48;77.34
17525;BME280;40431;52.198;9.902;2023-07-29T11:13:34;99714.28;;;24.28;77.05
17525;BME280;40431;52.198;9.902;2023-07-29T11:16:00;99709.22;;;24.03;78.65
17525;BME280;40431;52.198;9.902;2023-07-29T11:18:28;99712.94;;;23.89;80.16
17525;BME280;40431;52.198;9.902;2023-07-29T11:20:58;99712.63;;;23.77;79.70
17525;BME280;40431;52.198;9.902;2023-07-29T11:23:29;99712.91;;;23.60;79.82
17525;BME280;40431;52.198;9.902;2023-07-29T11:25:57;99713.56;;;23.62;78.58
17525;BME280;40431;52.198;9.902;2023-07-29T11:28:23;99705.34;;;23.76;78.13
17525;BME280;40431;52.198;9.902;2023-07-29T11:30:50;99708.97;;;23.98;78.39
17525;BME280;40431;52.198;9.902;2023-07-29T11:33:18;99696.63;;;24.00;77.43
17525;BME280;40431;52.198;9.902;2023-07-29T11:35:44;99716.31;;;24.12;74.28
17525;BME280;40431;52.198;9.902;2023-07-29T11:38:16;99701.72;;;24.25;70.76
17525;BME280;40431;52.198;9.902;2023-07-29T11:40:42;99711.84;;;24.46;68.44
17525;BME280;40431;52.198;9.902;2023-07-29T11:43:09;99720.47;;;24.65;65.63
17525;BME280;40431;52.198;9.902;2023-07-29T11:45:35;99707.72;;;24.71;64.96
17525;BME280;40431;52.198;9.902;2023-07-29T11:48:02;99716.25;;;24.69;66.74
17525;BME280;40431;52.198;9.902;2023-07-29T11:50:28;99727.78;;;24.79;66.06
17525;BME280;40431;52.198;9.902;2023-07-29T11:52:54;99714.34;;;24.83;67.20
17525;BME280;40431;52.198;9.902;2023-07-29T11:55:22;99715.44;;;24.89;66.99
17525;BME280;40431;52.198;9.902;2023-07-29T11:57:51;99716.06;;;24.77;64.31
17525;BME280;40431;52.198;9.902;2023-07-29T12:00:17;99725.63;;;24.75;64.56
17525;BME280;40431;52.198;9.902;2023-07-29T12:02:45;99714.06;;;24.64;62.93
17525;BME280;40431;52.198;9.902;2023-07-29T12:05:13;99729.75;;;24.50;63.77
17525;BME280;40431;52.198;9.902;2023-07-29T12:07:42;99723.09;;;24.45;63.36
17525;BME280;40431;52.198;9.902;2023-07-29T12:10:09;99724.59;;;24.47;64.35
17525;BME280;40431;52.198;9.902;2023-07-29T12:12:43;99718.28;;;24.60;64.22
17525;BME280;40431;52.198;9.902;2023-07-29T12:15:10;99729.88;;;24.71;63.08
17525;BME280;40431;52.198;9.902;2023-07-29T12:17:39;99732.22;;;24.74;62.48
17525;BME280;40431;52.198;9.902;2023-07-29T12:20:08;99733.75;;;24.76;61.28
17525;BME280;40431;52.198;9.902;2023-07-29T12:22:35;99736.84;;;24.60;60.61
17525;BME280;40431;52.198;9.902;2023-07-29T12:25:02;99740.88;;;24.57;60.29
17525;BME280;40431;52.198;9.902;2023-07-29T12:27:30;99728.16;;;24.70;61.03
17525;BME280;40431;52.198;9.902;2023-07-29T12:30:01;99728.25;;;24.90;61.41
17525;BME280;40431;52.198;9.902;2023-07-29T12:32:29;99734.28;;;25.07;58.23
17525;BME280;40431;52.198;9.902;2023-07-29T12:34:55;99713.78;;;25.01;58.63
17525;BME280;40431;52.198;9.902;2023-07-29T12:37:31;99722.75;;;25.10;58.33
17525;BME280;40431;52.198;9.902;2023-07-29T12:39:57;99724.66;;;25.03;55.75
17525;BME280;40431;52.198;9.902;2023-07-29T12:42:23;99725.75;;;25.08;57.98
17525;BME280;40431;52.198;9.902;2023-07-29T12:44:50;99726.75;;;24.94;57.48
17525;BME280;40431;52.198;9.902;2023-07-29T12:47:17;99729.50;;;24.87;57.55
17525;BME280;40431;52.198;9.902;2023-07-29T12:49:44;99730.81;;;24.98;57.05
17525;BME280;40431;52.198;9.902;2023-07-29T12:52:10;99725.69;;;24.95;57.08